createdAt,value
2017-06-16T00:00:26.496Z,15.00
2017-06-16T00:03:01.062Z,15.00
2017-06-16T00:05:35.541Z,14.90
2017-06-16T00:08:09.946Z,14.80
2017-06-16T00:10:44.373Z,14.80
2017-06-16T00:13:18.785Z,14.80
2017-06-16T00:15:53.332Z,14.70
2017-06-16T00:18:28.461Z,14.70
2017-06-16T00:21:02.989Z,14.70
2017-06-16T00:23:37.345Z,14.80
2017-06-16T00:26:11.834Z,14.70
2017-06-16T00:28:46.252Z,14.70
2017-06-16T00:31:20.757Z,14.70
2017-06-16T00:33:55.268Z,14.60
2017-06-16T00:36:29.632Z,14.60
2017-06-16T00:39:04.137Z,14.50
2017-06-16T00:41:38.585Z,14.40
2017-06-16T00:44:13.202Z,14.50
2017-06-16T00:46:47.696Z,14.50
2017-06-16T00:49:22.200Z,14.40
2017-06-16T00:51:56.652Z,14.40
2017-06-16T00:54:31.136Z,14.40
2017-06-16T00:57:05.593Z,14.40
2017-06-16T00:59:40.084Z,14.30
2017-06-16T01:02:14.515Z,14.30
2017-06-16T01:04:49.024Z,14.30
2017-06-16T01:07:23.576Z,14.20
2017-06-16T01:09:58.087Z,14.20
2017-06-16T01:12:32.446Z,14.20
2017-06-16T01:15:06.973Z,14.20
2017-06-16T01:17:41.448Z,14.20
2017-06-16T01:20:16.744Z,14.10
2017-06-16T01:22:52.337Z,14.10
2017-06-16T01:25:26.708Z,14.00
2017-06-16T01:28:01.069Z,14.00
2017-06-16T01:30:35.576Z,14.10
2017-06-16T01:33:10.058Z,14.00
2017-06-16T01:35:44.501Z,14.00
2017-06-16T01:38:18.818Z,14.00
2017-06-16T01:40:53.364Z,14.00
2017-06-16T01:43:27.937Z,14.00
2017-06-16T01:46:02.405Z,14.10
2017-06-16T01:48:36.752Z,14.10
2017-06-16T01:51:11.229Z,14.20
2017-06-16T01:53:45.616Z,14.20
2017-06-16T01:56:20.062Z,14.20
2017-06-16T01:58:54.483Z,14.20
2017-06-16T02:01:29.016Z,14.30
2017-06-16T02:04:03.757Z,14.30
2017-06-16T02:06:38.277Z,14.40
2017-06-16T02:09:12.668Z,14.40
2017-06-16T02:11:47.065Z,14.40
2017-06-16T02:14:21.420Z,14.40
2017-06-16T02:16:55.922Z,14.40
2017-06-16T02:19:30.396Z,14.40
2017-06-16T02:22:05.669Z,14.40
2017-06-16T02:24:40.072Z,14.40
2017-06-16T02:27:14.613Z,14.40
2017-06-16T02:29:49.077Z,14.40
2017-06-16T02:32:23.570Z,14.40
2017-06-16T02:34:58.112Z,14.50
2017-06-16T02:37:32.405Z,14.50
2017-06-16T02:40:06.786Z,14.50
2017-06-16T02:42:41.244Z,14.50
2017-06-16T02:45:15.611Z,14.50
2017-06-16T02:47:50.097Z,14.50
2017-06-16T02:50:25.228Z,14.40
2017-06-16T02:52:59.608Z,14.40
2017-06-16T02:55:34.069Z,14.40
2017-06-16T02:58:08.627Z,14.40
2017-06-16T03:00:43.084Z,14.40
2017-06-16T03:03:17.468Z,14.40
2017-06-16T03:05:51.916Z,14.30
2017-06-16T03:08:26.282Z,14.30
2017-06-16T03:11:00.802Z,14.20
2017-06-16T03:13:35.564Z,14.20
2017-06-16T03:16:10.032Z,14.20
2017-06-16T03:18:44.468Z,14.30
2017-06-16T03:21:24.773Z,14.20
2017-06-16T03:23:59.470Z,14.20
2017-06-16T03:26:33.872Z,14.20
2017-06-16T03:29:08.221Z,14.20
2017-06-16T03:31:42.712Z,14.10
2017-06-16T03:34:17.148Z,14.20
2017-06-16T03:36:52.460Z,14.20
2017-06-16T03:39:27.097Z,14.20
2017-06-16T03:42:01.605Z,14.20
2017-06-16T03:44:36.044Z,14.20
2017-06-16T03:47:10.521Z,14.20
2017-06-16T03:49:44.916Z,14.20
2017-06-16T03:52:19.406Z,14.20
2017-06-16T03:54:53.805Z,14.20
2017-06-16T03:57:28.566Z,14.20
2017-06-16T04:00:03.065Z,14.30
2017-06-16T04:02:37.863Z,14.30
2017-06-16T04:05:12.405Z,14.30
2017-06-16T04:07:46.972Z,14.30
2017-06-16T04:10:21.432Z,14.40
2017-06-16T04:12:55.809Z,14.40
2017-06-16T04:15:30.361Z,14.40
2017-06-16T04:18:04.992Z,14.40
2017-06-16T04:20:39.408Z,14.40
2017-06-16T04:23:13.819Z,14.40
2017-06-16T04:25:48.352Z,14.50
2017-06-16T04:28:22.909Z,14.50
2017-06-16T04:30:57.325Z,14.60
2017-06-16T04:33:31.818Z,14.60
2017-06-16T04:36:06.268Z,14.60
2017-06-16T04:38:40.808Z,14.60
2017-06-16T04:41:15.266Z,14.70
2017-06-16T04:43:49.697Z,14.70
2017-06-16T04:46:24.285Z,14.70
2017-06-16T04:48:58.750Z,14.80
2017-06-16T04:51:35.170Z,14.80
2017-06-16T04:54:10.835Z,14.80
2017-06-16T04:56:45.520Z,14.80
2017-06-16T04:59:20.044Z,14.80
2017-06-16T05:01:54.701Z,14.90
2017-06-16T05:04:29.148Z,14.90
2017-06-16T05:07:04.407Z,15.00
2017-06-16T05:09:38.930Z,15.00
2017-06-16T05:12:14.057Z,15.00
2017-06-16T05:14:48.590Z,15.00
2017-06-16T05:17:23.001Z,15.10
2017-06-16T05:19:57.567Z,15.10
2017-06-16T05:22:37.661Z,15.20
2017-06-16T05:25:12.417Z,15.20
2017-06-16T05:27:46.768Z,15.30
2017-06-16T05:30:21.473Z,15.30
2017-06-16T05:32:55.772Z,15.40
2017-06-16T05:35:30.118Z,15.40
2017-06-16T05:38:04.712Z,15.50
2017-06-16T05:40:39.409Z,15.60
2017-06-16T05:43:13.992Z,15.60
2017-06-16T05:45:48.408Z,15.60
2017-06-16T05:48:22.953Z,15.60
2017-06-16T05:50:58.208Z,15.80
2017-06-16T05:53:34.285Z,15.90
2017-06-16T05:56:08.784Z,15.90
2017-06-16T05:58:43.248Z,15.90
2017-06-16T06:01:17.665Z,16.40
2017-06-16T06:03:52.176Z,17.90
2017-06-16T06:06:26.613Z,18.20
2017-06-16T06:09:01.922Z,18.50
2017-06-16T06:11:36.405Z,18.40
2017-06-16T06:14:10.841Z,18.30
2017-06-16T06:16:45.469Z,18.90
2017-06-16T06:19:19.780Z,19.70
2017-06-16T06:21:54.192Z,18.20
2017-06-16T06:24:29.504Z,18.00
2017-06-16T06:27:03.996Z,17.90
2017-06-16T06:29:38.421Z,18.80
2017-06-16T06:32:12.843Z,17.80
2017-06-16T06:34:47.355Z,17.90
2017-06-16T06:37:21.901Z,17.90
2017-06-16T06:39:56.416Z,18.00
2017-06-16T06:42:30.824Z,18.30
2017-06-16T06:45:05.274Z,18.50
2017-06-16T06:47:39.715Z,18.10
2017-06-16T06:50:14.284Z,18.80
2017-06-16T06:52:48.853Z,18.90
2017-06-16T06:55:23.181Z,18.60
2017-06-16T06:57:57.652Z,17.30
2017-06-16T07:00:32.037Z,17.90
2017-06-16T07:03:06.509Z,18.00
2017-06-16T07:05:40.860Z,18.80
2017-06-16T07:08:15.272Z,18.50
2017-06-16T07:10:49.812Z,17.20
2017-06-16T07:13:24.206Z,17.50
2017-06-16T07:15:58.775Z,17.20
2017-06-16T07:18:33.268Z,17.20
2017-06-16T07:21:07.769Z,17.10
2017-06-16T07:23:43.081Z,17.00
2017-06-16T07:26:17.620Z,17.00
2017-06-16T07:28:52.796Z,16.80
2017-06-16T07:31:27.398Z,16.70
2017-06-16T07:34:01.974Z,16.90
2017-06-16T07:36:36.408Z,17.00
2017-06-16T07:39:10.942Z,17.00
2017-06-16T07:41:45.416Z,17.10
2017-06-16T07:44:19.789Z,17.10
2017-06-16T07:46:54.276Z,17.10
2017-06-16T07:49:28.722Z,17.30
2017-06-16T07:52:03.167Z,17.30
2017-06-16T07:54:37.644Z,17.50
2017-06-16T07:57:12.944Z,17.40
2017-06-16T07:59:47.664Z,17.40
2017-06-16T08:02:22.192Z,17.30
2017-06-16T08:04:56.596Z,17.00
2017-06-16T08:07:31.101Z,16.60
2017-06-16T08:10:05.547Z,16.00
2017-06-16T08:12:40.149Z,15.80
2017-06-16T08:15:14.708Z,16.10
2017-06-16T08:17:49.153Z,16.20
2017-06-16T08:20:23.644Z,16.50
2017-06-16T08:22:58.013Z,16.40
2017-06-16T08:25:32.471Z,16.60
2017-06-16T08:28:06.859Z,16.90
2017-06-16T08:30:41.312Z,16.90
2017-06-16T08:33:15.733Z,16.90
2017-06-16T08:35:50.122Z,17.20
2017-06-16T08:38:24.437Z,16.80
2017-06-16T08:40:58.749Z,16.80
2017-06-16T08:43:33.201Z,16.80
2017-06-16T08:46:07.631Z,17.00
2017-06-16T08:48:42.038Z,17.10
2017-06-16T08:51:16.429Z,17.00
2017-06-16T08:53:50.768Z,17.30
2017-06-16T08:56:25.217Z,17.30
2017-06-16T08:58:59.552Z,18.10
2017-06-16T09:01:33.941Z,18.50
2017-06-16T09:04:08.297Z,18.50
2017-06-16T09:06:42.611Z,18.70
2017-06-16T09:09:17.054Z,18.80
2017-06-16T09:11:51.417Z,18.30
2017-06-16T09:14:25.954Z,17.60
2017-06-16T09:17:00.344Z,17.90
2017-06-16T09:19:34.817Z,17.50
2017-06-16T09:22:09.904Z,17.10
2017-06-16T09:24:44.245Z,17.10
2017-06-16T09:27:18.636Z,16.80
2017-06-16T09:29:52.989Z,17.70
2017-06-16T09:32:27.352Z,18.20
2017-06-16T09:35:02.413Z,19.00
2017-06-16T09:37:36.778Z,19.00
2017-06-16T09:40:11.272Z,19.40
2017-06-16T09:42:45.757Z,18.10
2017-06-16T09:45:20.093Z,17.50
2017-06-16T09:47:54.516Z,18.20
2017-06-16T09:50:29.645Z,19.10
2017-06-16T09:53:04.041Z,19.10
2017-06-16T09:55:38.357Z,18.90
2017-06-16T09:58:12.800Z,18.70
2017-06-16T10:00:47.376Z,17.90
2017-06-16T10:03:21.687Z,17.30
2017-06-16T10:05:56.080Z,16.70
2017-06-16T10:08:30.613Z,16.30
2017-06-16T10:11:04.932Z,16.40
2017-06-16T10:13:39.242Z,17.50
2017-06-16T10:16:13.560Z,17.20
2017-06-16T10:18:47.966Z,18.10
2017-06-16T10:21:22.409Z,18.40
2017-06-16T10:23:56.788Z,18.60
2017-06-16T10:26:31.345Z,18.20
2017-06-16T10:29:06.829Z,18.90
2017-06-16T10:31:41.220Z,19.20
2017-06-16T10:34:15.604Z,19.20
2017-06-16T10:36:50.356Z,19.50
2017-06-16T10:39:24.792Z,19.90
2017-06-16T10:41:59.177Z,19.60
2017-06-16T10:44:33.660Z,18.60
2017-06-16T10:47:08.221Z,17.90
2017-06-16T10:49:42.757Z,17.30
2017-06-16T10:52:17.117Z,18.20
2017-06-16T10:54:51.602Z,18.60
2017-06-16T10:57:26.128Z,19.10
2017-06-16T11:00:00.501Z,19.40
2017-06-16T11:02:35.056Z,18.80
2017-06-16T11:05:09.440Z,19.80
2017-06-16T11:07:43.871Z,18.50
2017-06-16T11:10:18.317Z,17.90
2017-06-16T11:12:52.658Z,17.50
2017-06-16T11:15:27.175Z,17.20
2017-06-16T11:18:02.365Z,18.70
2017-06-16T11:20:36.809Z,18.70
2017-06-16T11:23:11.301Z,18.10
2017-06-16T11:25:45.844Z,17.80
2017-06-16T11:28:20.191Z,17.90
2017-06-16T11:30:55.473Z,19.50
2017-06-16T11:33:30.237Z,19.50
2017-06-16T11:36:04.626Z,18.70
2017-06-16T11:38:38.992Z,19.60
2017-06-16T11:41:13.398Z,18.80
2017-06-16T11:43:47.793Z,18.10
2017-06-16T11:46:22.332Z,17.50
2017-06-16T11:48:56.871Z,16.70
2017-06-16T11:51:32.148Z,17.80
2017-06-16T11:54:06.552Z,17.70
2017-06-16T11:56:41.133Z,18.20
2017-06-16T11:59:15.769Z,17.20
2017-06-16T12:01:50.185Z,17.10
2017-06-16T12:04:24.513Z,17.80
2017-06-16T12:06:59.021Z,17.50
2017-06-16T12:09:34.165Z,17.70
2017-06-16T12:12:08.612Z,17.60
2017-06-16T12:14:43.126Z,17.50
2017-06-16T12:17:17.509Z,17.20
2017-06-16T12:19:51.945Z,17.20
2017-06-16T12:22:26.441Z,17.80
2017-06-16T12:25:01.601Z,18.50
2017-06-16T12:27:36.256Z,18.50
2017-06-16T12:30:10.717Z,17.80
2017-06-16T12:32:45.096Z,16.90
2017-06-16T12:35:19.445Z,16.60
2017-06-16T12:37:53.886Z,17.00
2017-06-16T12:40:28.400Z,17.70
2017-06-16T12:43:03.513Z,17.80
2017-06-16T12:45:38.864Z,17.90
2017-06-16T12:48:13.190Z,17.90
2017-06-16T12:50:47.557Z,17.90
2017-06-16T12:53:22.025Z,17.20
2017-06-16T12:55:56.849Z,16.70
2017-06-16T12:58:31.512Z,16.70
2017-06-16T13:01:06.076Z,16.40
2017-06-16T13:03:40.677Z,16.40
2017-06-16T13:06:15.952Z,16.60
